sensor_id;sensor_type;location;lat;lon;timestamp;P1;durP1;ratioP1;P2;durP2;ratioP2
47539;SDS011;33280;52.152;21.052;2023-12-20T00:02:19;28.50;;;16.40;;
47539;SDS011;33280;52.152;21.052;2023-12-20T00:05:06;27.23;;;15.60;;
47539;SDS011;33280;52.152;21.052;2023-12-20T00:07:54;29.13;;;16.10;;
47539;SDS011;33280;52.152;21.052;2023-12-20T00:10:41;26.67;;;16.50;;
47539;SDS011;33280;52.152;21.052;2023-12-20T00:13:30;27.40;;;15.73;;
47539;SDS011;33280;52.152;21.052;2023-12-20T00:16:17;26.23;;;15.60;;
47539;SDS011;33280;52.152;21.052;2023-12-20T00:19:04;26.67;;;15.53;;
47539;SDS011;33280;52.152;21.052;2023-12-20T00:21:52;29.07;;;15.57;;
47539;SDS011;33280;52.152;21.052;2023-12-20T00:24:39;26.00;;;15.73;;
47539;SDS011;33280;52.152;21.052;2023-12-20T00:27:27;24.23;;;15.07;;
47539;SDS011;33280;52.152;21.052;2023-12-20T00:30:14;22.87;;;14.37;;
47539;SDS011;33280;52.152;21.052;2023-12-20T00:33:01;23.90;;;14.53;;
47539;SDS011;33280;52.152;21.052;2023-12-20T00:35:49;26.87;;;15.20;;
47539;SDS011;33280;52.152;21.052;2023-12-20T00:38:37;23.03;;;14.47;;
47539;SDS011;33280;52.152;21.052;2023-12-20T00:41:24;24.47;;;14.10;;
47539;SDS011;33280;52.152;21.052;2023-12-20T00:44:11;22.03;;;13.50;;
47539;SDS011;33280;52.152;21.052;2023-12-20T00:46:58;20.53;;;12.90;;
47539;SDS011;33280;52.152;21.052;2023-12-20T00:49:46;21.30;;;13.07;;
47539;SDS011;33280;52.152;21.052;2023-12-20T00:52:33;22.23;;;13.70;;
47539;SDS011;33280;52.152;21.052;2023-12-20T00:55:20;19.83;;;12.90;;
47539;SDS011;33280;52.152;21.052;2023-12-20T00:58:07;19.60;;;12.23;;
47539;SDS011;33280;52.152;21.052;2023-12-20T01:00:55;20.50;;;12.07;;
47539;SDS011;33280;52.152;21.052;2023-12-20T01:03:42;19.00;;;11.30;;
47539;SDS011;33280;52.152;21.052;2023-12-20T01:06:30;21.97;;;12.47;;
47539;SDS011;33280;52.152;21.052;2023-12-20T01:09:17;21.07;;;12.37;;
47539;SDS011;33280;52.152;21.052;2023-12-20T01:12:05;20.70;;;11.87;;
47539;SDS011;33280;52.152;21.052;2023-12-20T01:14:52;19.30;;;12.03;;
47539;SDS011;33280;52.152;21.052;2023-12-20T01:17:40;20.20;;;12.27;;
47539;SDS011;33280;52.152;21.052;2023-12-20T01:20:27;21.87;;;12.73;;
47539;SDS011;33280;52.152;21.052;2023-12-20T01:23:15;19.53;;;12.30;;
47539;SDS011;33280;52.152;21.052;2023-12-20T01:26:02;18.07;;;11.93;;
47539;SDS011;33280;52.152;21.052;2023-12-20T01:28:51;18.03;;;11.63;;
47539;SDS011;33280;52.152;21.052;2023-12-20T01:31:38;18.50;;;11.33;;
47539;SDS011;33280;52.152;21.052;2023-12-20T01:34:25;20.33;;;11.57;;
47539;SDS011;33280;52.152;21.052;2023-12-20T01:37:13;19.17;;;12.10;;
47539;SDS011;33280;52.152;21.052;2023-12-20T01:40:01;19.17;;;11.87;;
47539;SDS011;33280;52.152;21.052;2023-12-20T01:43:01;17.93;;;11.13;;
47539;SDS011;33280;52.152;21.052;2023-12-20T01:45:53;20.83;;;12.53;;
47539;SDS011;33280;52.152;21.052;2023-12-20T01:48:43;15.63;;;10.73;;
47539;SDS011;33280;52.152;21.052;2023-12-20T01:51:31;20.23;;;11.83;;
47539;SDS011;33280;52.152;21.052;2023-12-20T01:54:19;17.43;;;11.00;;
47539;SDS011;33280;52.152;21.052;2023-12-20T01:57:07;19.97;;;10.80;;
47539;SDS011;33280;52.152;21.052;2023-12-20T01:59:55;16.83;;;10.87;;
47539;SDS011;33280;52.152;21.052;2023-12-20T02:02:43;16.00;;;10.27;;
47539;SDS011;33280;52.152;21.052;2023-12-20T02:05:33;16.73;;;10.53;;
47539;SDS011;33280;52.152;21.052;2023-12-20T02:08:21;15.33;;;10.00;;
47539;SDS011;33280;52.152;21.052;2023-12-20T02:11:10;15.83;;;10.57;;
47539;SDS011;33280;52.152;21.052;2023-12-20T02:13:57;15.77;;;9.87;;
47539;SDS011;33280;52.152;21.052;2023-12-20T02:16:44;17.20;;;10.60;;
47539;SDS011;33280;52.152;21.052;2023-12-20T02:19:32;15.23;;;10.50;;
47539;SDS011;33280;52.152;21.052;2023-12-20T02:22:19;17.90;;;10.20;;
47539;SDS011;33280;52.152;21.052;2023-12-20T02:25:07;17.03;;;10.10;;
47539;SDS011;33280;52.152;21.052;2023-12-20T02:27:54;19.03;;;11.00;;
47539;SDS011;33280;52.152;21.052;2023-12-20T02:30:42;16.20;;;10.00;;
47539;SDS011;33280;52.152;21.052;2023-12-20T02:33:29;18.33;;;11.30;;
47539;SDS011;33280;52.152;21.052;2023-12-20T02:36:17;16.17;;;10.10;;
47539;SDS011;33280;52.152;21.052;2023-12-20T02:39:04;15.17;;;10.03;;
47539;SDS011;33280;52.152;21.052;2023-12-20T02:41:51;15.77;;;9.80;;
47539;SDS011;33280;52.152;21.052;2023-12-20T02:44:39;16.40;;;9.70;;
47539;SDS011;33280;52.152;21.052;2023-12-20T02:47:26;15.30;;;9.40;;
47539;SDS011;33280;52.152;21.052;2023-12-20T02:50:13;14.30;;;8.37;;
47539;SDS011;33280;52.152;21.052;2023-12-20T02:53:00;12.77;;;8.30;;
47539;SDS011;33280;52.152;21.052;2023-12-20T02:55:48;12.97;;;8.43;;
47539;SDS011;33280;52.152;21.052;2023-12-20T02:58:35;13.17;;;7.83;;
47539;SDS011;33280;52.152;21.052;2023-12-20T03:01:22;10.90;;;7.90;;
47539;SDS011;33280;52.152;21.052;2023-12-20T03:04:10;13.90;;;8.47;;
47539;SDS011;33280;52.152;21.052;2023-12-20T03:06:58;12.27;;;8.50;;
47539;SDS011;33280;52.152;21.052;2023-12-20T03:09:45;15.00;;;8.50;;
47539;SDS011;33280;52.152;21.052;2023-12-20T03:12:51;14.40;;;9.40;;
47539;SDS011;33280;52.152;21.052;2023-12-20T03:15:39;12.87;;;8.63;;
47539;SDS011;33280;52.152;21.052;2023-12-20T03:18:27;15.33;;;8.60;;
47539;SDS011;33280;52.152;21.052;2023-12-20T03:21:15;12.07;;;7.80;;
47539;SDS011;33280;52.152;21.052;2023-12-20T03:24:03;9.47;;;6.77;;
47539;SDS011;33280;52.152;21.052;2023-12-20T03:26:50;9.97;;;6.57;;
47539;SDS011;33280;52.152;21.052;2023-12-20T03:29:37;9.03;;;6.33;;
47539;SDS011;33280;52.152;21.052;2023-12-20T03:32:25;10.10;;;6.60;;
47539;SDS011;33280;52.152;21.052;2023-12-20T03:35:12;10.17;;;6.30;;
47539;SDS011;33280;52.152;21.052;2023-12-20T03:38:00;10.47;;;6.80;;
47539;SDS011;33280;52.152;21.052;2023-12-20T03:40:47;13.20;;;6.90;;
47539;SDS011;33280;52.152;21.052;2023-12-20T03:43:34;10.10;;;6.77;;
47539;SDS011;33280;52.152;21.052;2023-12-20T03:46:22;12.73;;;7.07;;
47539;SDS011;33280;52.152;21.052;2023-12-20T03:49:09;9.63;;;6.70;;
47539;SDS011;33280;52.152;21.052;2023-12-20T03:51:56;11.03;;;6.90;;
47539;SDS011;33280;52.152;21.052;2023-12-20T03:54:44;9.90;;;6.53;;
47539;SDS011;33280;52.152;21.052;2023-12-20T03:57:31;11.23;;;7.23;;
47539;SDS011;33280;52.152;21.052;2023-12-20T04:00:18;9.17;;;6.27;;
47539;SDS011;33280;52.152;21.052;2023-12-20T04:03:06;9.20;;;6.10;;
47539;SDS011;33280;52.152;21.052;2023-12-20T04:05:54;7.77;;;5.57;;
47539;SDS011;33280;52.152;21.052;2023-12-20T04:08:41;10.17;;;6.00;;
47539;SDS011;33280;52.152;21.052;2023-12-20T04:11:28;9.97;;;6.47;;
47539;SDS011;33280;52.152;21.052;2023-12-20T04:14:16;9.80;;;6.03;;
47539;SDS011;33280;52.152;21.052;2023-12-20T04:17:03;10.50;;;6.47;;
47539;SDS011;33280;52.152;21.052;2023-12-20T04:19:51;8.80;;;6.10;;
47539;SDS011;33280;52.152;21.052;2023-12-20T04:22:38;8.60;;;5.83;;
47539;SDS011;33280;52.152;21.052;2023-12-20T04:25:26;10.50;;;6.30;;
47539;SDS011;33280;52.152;21.052;2023-12-20T04:28:13;9.47;;;6.03;;
47539;SDS011;33280;52.152;21.052;2023-12-20T04:31:00;12.90;;;6.93;;
47539;SDS011;33280;52.152;21.052;2023-12-20T04:33:48;10.67;;;6.77;;
47539;SDS011;33280;52.152;21.052;2023-12-20T04:36:35;10.97;;;7.07;;
47539;SDS011;33280;52.152;21.052;2023-12-20T04:39:23;10.03;;;6.93;;
47539;SDS011;33280;52.152;21.052;2023-12-20T04:42:10;9.93;;;6.93;;
47539;SDS011;33280;52.152;21.052;2023-12-20T04:44:57;9.03;;;6.60;;
47539;SDS011;33280;52.152;21.052;2023-12-20T04:47:45;11.30;;;7.00;;
47539;SDS011;33280;52.152;21.052;2023-12-20T04:50:34;10.97;;;7.00;;
47539;SDS011;33280;52.152;21.052;2023-12-20T04:53:21;12.07;;;7.27;;
47539;SDS011;33280;52.152;21.052;2023-12-20T04:56:09;12.00;;;7.27;;
47539;SDS011;33280;52.152;21.052;2023-12-20T04:58:57;10.97;;;6.93;;
47539;SDS011;33280;52.152;21.052;2023-12-20T05:01:44;10.23;;;6.60;;
47539;SDS011;33280;52.152;21.052;2023-12-20T05:04:31;11.63;;;7.50;;
47539;SDS011;33280;52.152;21.052;2023-12-20T05:07:19;11.23;;;7.03;;
47539;SDS011;33280;52.152;21.052;2023-12-20T05:10:07;11.67;;;7.37;;
47539;SDS011;33280;52.152;21.052;2023-12-20T05:12:55;12.53;;;7.50;;
47539;SDS011;33280;52.152;21.052;2023-12-20T05:15:43;11.90;;;7.77;;
47539;SDS011;33280;52.152;21.052;2023-12-20T05:18:30;13.40;;;7.90;;
47539;SDS011;33280;52.152;21.052;2023-12-20T05:21:17;12.53;;;8.07;;
47539;SDS011;33280;52.152;21.052;2023-12-20T05:24:05;13.30;;;8.37;;
47539;SDS011;33280;52.152;21.052;2023-12-20T05:26:52;14.23;;;8.40;;
47539;SDS011;33280;52.152;21.052;2023-12-20T05:29:39;13.17;;;8.23;;
47539;SDS011;33280;52.152;21.052;2023-12-20T05:32:27;13.87;;;8.67;;
47539;SDS011;33280;52.152;21.052;2023-12-20T05:35:14;13.57;;;8.60;;
47539;SDS011;33280;52.152;21.052;2023-12-20T05:38:02;13.23;;;8.90;;
47539;SDS011;33280;52.152;21.052;2023-12-20T05:40:49;16.17;;;9.03;;
47539;SDS011;33280;52.152;21.052;2023-12-20T05:43:37;15.57;;;8.60;;
47539;SDS011;33280;52.152;21.052;2023-12-20T05:46:24;14.43;;;9.13;;
47539;SDS011;33280;52.152;21.052;2023-12-20T05:49:12;12.90;;;8.13;;
47539;SDS011;33280;52.152;21.052;2023-12-20T05:52:00;12.77;;;8.60;;
47539;SDS011;33280;52.152;21.052;2023-12-20T05:54:47;13.47;;;8.27;;
47539;SDS011;33280;52.152;21.052;2023-12-20T05:57:35;14.83;;;8.27;;
47539;SDS011;33280;52.152;21.052;2023-12-20T06:00:22;12.90;;;8.63;;
47539;SDS011;33280;52.152;21.052;2023-12-20T06:03:09;14.30;;;7.80;;
47539;SDS011;33280;52.152;21.052;2023-12-20T06:05:57;13.90;;;7.73;;
47539;SDS011;33280;52.152;21.052;2023-12-20T06:08:59;13.47;;;8.27;;
47539;SDS011;33280;52.152;21.052;2023-12-20T06:11:46;15.43;;;8.13;;
47539;SDS011;33280;52.152;21.052;2023-12-20T06:14:33;12.70;;;7.73;;
47539;SDS011;33280;52.152;21.052;2023-12-20T06:17:21;14.50;;;8.27;;
47539;SDS011;33280;52.152;21.052;2023-12-20T06:20:09;15.67;;;8.27;;
47539;SDS011;33280;52.152;21.052;2023-12-20T06:22:57;15.27;;;8.40;;
47539;SDS011;33280;52.152;21.052;2023-12-20T06:25:44;16.33;;;8.20;;
47539;SDS011;33280;52.152;21.052;2023-12-20T06:28:31;15.33;;;8.90;;
47539;SDS011;33280;52.152;21.052;2023-12-20T06:31:19;12.90;;;8.23;;
47539;SDS011;33280;52.152;21.052;2023-12-20T06:34:06;13.17;;;8.20;;
47539;SDS011;33280;52.152;21.052;2023-12-20T06:36:54;14.13;;;8.43;;
47539;SDS011;33280;52.152;21.052;2023-12-20T06:39:41;14.07;;;8.73;;
47539;SDS011;33280;52.152;21.052;2023-12-20T06:42:29;15.97;;;9.00;;
47539;SDS011;33280;52.152;21.052;2023-12-20T06:45:22;16.03;;;9.03;;
47539;SDS011;33280;52.152;21.052;2023-12-20T06:48:09;17.50;;;9.60;;
47539;SDS011;33280;52.152;21.052;2023-12-20T06:50:59;16.33;;;9.40;;
47539;SDS011;33280;52.152;21.052;2023-12-20T06:53:48;13.77;;;9.13;;
47539;SDS011;33280;52.152;21.052;2023-12-20T06:56:36;15.27;;;9.47;;
47539;SDS011;33280;52.152;21.052;2023-12-20T06:59:23;16.20;;;9.53;;
47539;SDS011;33280;52.152;21.052;2023-12-20T07:02:11;16.27;;;9.47;;
47539;SDS011;33280;52.152;21.052;2023-12-20T07:05:01;18.33;;;9.97;;
47539;SDS011;33280;52.152;21.052;2023-12-20T07:07:48;16.87;;;9.57;;
47539;SDS011;33280;52.152;21.052;2023-12-20T07:10:36;16.43;;;9.47;;
47539;SDS011;33280;52.152;21.052;2023-12-20T07:13:23;15.47;;;9.43;;
47539;SDS011;33280;52.152;21.052;2023-12-20T07:16:11;15.53;;;9.53;;
47539;SDS011;33280;52.152;21.052;2023-12-20T07:19:00;15.47;;;9.63;;
47539;SDS011;33280;52.152;21.052;2023-12-20T07:21:47;15.67;;;9.13;;
47539;SDS011;33280;52.152;21.052;2023-12-20T07:24:34;16.53;;;10.23;;
47539;SDS011;33280;52.152;21.052;2023-12-20T07:27:22;16.87;;;9.90;;
47539;SDS011;33280;52.152;21.052;2023-12-20T07:30:09;16.33;;;9.57;;
47539;SDS011;33280;52.152;21.052;2023-12-20T07:32:57;19.43;;;10.30;;
47539;SDS011;33280;52.152;21.052;2023-12-20T07:35:44;17.30;;;10.53;;
47539;SDS011;33280;52.152;21.052;2023-12-20T07:38:32;17.57;;;9.77;;
47539;SDS011;33280;52.152;21.052;2023-12-20T07:41:19;17.07;;;9.63;;
47539;SDS011;33280;52.152;21.052;2023-12-20T07:44:08;17.23;;;10.10;;
47539;SDS011;33280;52.152;21.052;2023-12-20T07:46:56;17.20;;;9.77;;
47539;SDS011;33280;52.152;21.052;2023-12-20T07:49:44;16.63;;;10.27;;
47539;SDS011;33280;52.152;21.052;2023-12-20T07:52:32;16.10;;;9.93;;
47539;SDS011;33280;52.152;21.052;2023-12-20T07:55:20;15.63;;;9.57;;
47539;SDS011;33280;52.152;21.052;2023-12-20T07:58:07;14.10;;;9.07;;
47539;SDS011;33280;52.152;21.052;2023-12-20T08:00:55;17.27;;;9.60;;
47539;SDS011;33280;52.152;21.052;2023-12-20T08:03:43;15.10;;;9.10;;
47539;SDS011;33280;52.152;21.052;2023-12-20T08:06:31;12.87;;;7.87;;
47539;SDS011;33280;52.152;21.052;2023-12-20T08:09:18;13.90;;;8.07;;
47539;SDS011;33280;52.152;21.052;2023-12-20T08:12:06;14.27;;;8.60;;
47539;SDS011;33280;52.152;21.052;2023-12-20T08:14:54;14.60;;;8.87;;
47539;SDS011;33280;52.152;21.052;2023-12-20T08:17:41;14.40;;;9.07;;
47539;SDS011;33280;52.152;21.052;2023-12-20T08:20:31;12.57;;;8.23;;
47539;SDS011;33280;52.152;21.052;2023-12-20T08:23:26;14.63;;;8.50;;
47539;SDS011;33280;52.152;21.052;2023-12-20T08:26:18;15.00;;;8.40;;
47539;SDS011;33280;52.152;21.052;2023-12-20T08:29:09;15.13;;;8.07;;
47539;SDS011;33280;52.152;21.052;2023-12-20T08:31:59;13.50;;;8.03;;
47539;SDS011;33280;52.152;21.052;2023-12-20T08:34:47;14.20;;;8.27;;
47539;SDS011;33280;52.152;21.052;2023-12-20T08:37:34;15.53;;;7.93;;
47539;SDS011;33280;52.152;21.052;2023-12-20T08:40:22;13.00;;;7.37;;
47539;SDS011;33280;52.152;21.052;2023-12-20T08:43:10;12.97;;;8.13;;
47539;SDS011;33280;52.152;21.052;2023-12-20T08:45:57;13.07;;;7.60;;
47539;SDS011;33280;52.152;21.052;2023-12-20T08:48:45;14.00;;;7.80;;
47539;SDS011;33280;52.152;21.052;2023-12-20T08:51:33;13.40;;;7.47;;
47539;SDS011;33280;52.152;21.052;2023-12-20T08:54:20;15.03;;;7.70;;
47539;SDS011;33280;52.152;21.052;2023-12-20T08:57:08;14.73;;;7.50;;
47539;SDS011;33280;52.152;21.052;2023-12-20T08:59:55;15.13;;;8.90;;
47539;SDS011;33280;52.152;21.052;2023-12-20T09:02:43;14.10;;;7.77;;
47539;SDS011;33280;52.152;21.052;2023-12-20T09:05:30;18.47;;;8.17;;
47539;SDS011;33280;52.152;21.052;2023-12-20T09:08:18;12.50;;;7.30;;
47539;SDS011;33280;52.152;21.052;2023-12-20T09:11:06;13.70;;;7.93;;
47539;SDS011;33280;52.152;21.052;2023-12-20T09:13:53;10.53;;;6.83;;
47539;SDS011;33280;52.152;21.052;2023-12-20T09:16:41;12.70;;;7.97;;
47539;SDS011;33280;52.152;21.052;2023-12-20T09:19:28;11.77;;;7.23;;
47539;SDS011;33280;52.152;21.052;2023-12-20T09:22:16;13.97;;;7.87;;
47539;SDS011;33280;52.152;21.052;2023-12-20T09:25:04;14.67;;;8.13;;
47539;SDS011;33280;52.152;21.052;2023-12-20T09:27:52;12.93;;;7.87;;
47539;SDS011;33280;52.152;21.052;2023-12-20T09:30:39;12.93;;;8.07;;
47539;SDS011;33280;52.152;21.052;2023-12-20T09:33:27;14.07;;;8.13;;
47539;SDS011;33280;52.152;21.052;2023-12-20T09:36:15;12.63;;;7.37;;
47539;SDS011;33280;52.152;21.052;2023-12-20T09:39:02;14.37;;;7.60;;
47539;SDS011;33280;52.152;21.052;2023-12-20T09:44:46;12.57;;;7.80;;
47539;SDS011;33280;52.152;21.052;2023-12-20T09:47:34;12.27;;;7.37;;
47539;SDS011;33280;52.152;21.052;2023-12-20T09:50:22;13.40;;;7.93;;
47539;SDS011;33280;52.152;21.052;2023-12-20T09:53:14;13.20;;;8.13;;
47539;SDS011;33280;52.152;21.052;2023-12-20T09:56:03;14.20;;;8.10;;
47539;SDS011;33280;52.152;21.052;2023-12-20T09:58:52;13.40;;;7.67;;
47539;SDS011;33280;52.152;21.052;2023-12-20T10:01:41;15.27;;;8.30;;
47539;SDS011;33280;52.152;21.052;2023-12-20T10:04:28;14.70;;;8.20;;
47539;SDS011;33280;52.152;21.052;2023-12-20T10:07:19;15.10;;;8.27;;
47539;SDS011;33280;52.152;21.052;2023-12-20T10:10:07;15.40;;;8.50;;
47539;SDS011;33280;52.152;21.052;2023-12-20T10:13:05;14.63;;;7.70;;
47539;SDS011;33280;52.152;21.052;2023-12-20T10:16:00;12.03;;;7.00;;
47539;SDS011;33280;52.152;21.052;2023-12-20T10:18:48;11.67;;;7.10;;
47539;SDS011;33280;52.152;21.052;2023-12-20T10:21:35;13.93;;;7.97;;
47539;SDS011;33280;52.152;21.052;2023-12-20T10:24:22;13.07;;;7.43;;
47539;SDS011;33280;52.152;21.052;2023-12-20T10:27:11;16.27;;;7.70;;
47539;SDS011;33280;52.152;21.052;2023-12-20T10:29:59;13.00;;;7.10;;
47539;SDS011;33280;52.152;21.052;2023-12-20T10:32:46;11.20;;;7.33;;
47539;SDS011;33280;52.152;21.052;2023-12-20T10:35:35;15.50;;;7.57;;
47539;SDS011;33280;52.152;21.052;2023-12-20T10:38:22;16.23;;;7.60;;
47539;SDS011;33280;52.152;21.052;2023-12-20T10:41:11;13.30;;;7.60;;
47539;SDS011;33280;52.152;21.052;2023-12-20T10:44:04;12.63;;;7.60;;
47539;SDS011;33280;52.152;21.052;2023-12-20T10:46:54;12.13;;;7.53;;
47539;SDS011;33280;52.152;21.052;2023-12-20T10:49:45;11.20;;;7.20;;
47539;SDS011;33280;52.152;21.052;2023-12-20T10:52:33;12.23;;;7.40;;
47539;SDS011;33280;52.152;21.052;2023-12-20T10:55:22;12.37;;;7.17;;
47539;SDS011;33280;52.152;21.052;2023-12-20T10:58:15;13.03;;;6.93;;
47539;SDS011;33280;52.152;21.052;2023-12-20T11:01:03;13.77;;;6.80;;
47539;SDS011;33280;52.152;21.052;2023-12-20T11:03:53;11.33;;;7.07;;
47539;SDS011;33280;52.152;21.052;2023-12-20T11:09:43;12.20;;;6.57;;
47539;SDS011;33280;52.152;21.052;2023-12-20T11:15:30;10.00;;;6.27;;
47539;SDS011;33280;52.152;21.052;2023-12-20T11:18:17;12.63;;;6.60;;
47539;SDS011;33280;52.152;21.052;2023-12-20T11:21:05;11.87;;;6.73;;
47539;SDS011;33280;52.152;21.052;2023-12-20T11:23:52;13.20;;;6.50;;
47539;SDS011;33280;52.152;21.052;2023-12-20T11:26:41;9.50;;;5.83;;
47539;SDS011;33280;52.152;21.052;2023-12-20T11:29:35;12.50;;;6.00;;
47539;SDS011;33280;52.152;21.052;2023-12-20T11:38:02;9.83;;;5.90;;
47539;SDS011;33280;52.152;21.052;2023-12-20T11:40:49;9.90;;;5.97;;
47539;SDS011;33280;52.152;21.052;2023-12-20T11:43:37;11.53;;;6.17;;
47539;SDS011;33280;52.152;21.052;2023-12-20T11:46:26;11.30;;;6.47;;
47539;SDS011;33280;52.152;21.052;2023-12-20T11:49:13;9.07;;;6.20;;
47539;SDS011;33280;52.152;21.052;2023-12-20T11:52:00;10.23;;;6.60;;
47539;SDS011;33280;52.152;21.052;2023-12-20T11:54:48;10.50;;;6.53;;
47539;SDS011;33280;52.152;21.052;2023-12-20T11:57:36;13.73;;;6.43;;
47539;SDS011;33280;52.152;21.052;2023-12-20T12:00:24;10.03;;;6.53;;
47539;SDS011;33280;52.152;21.052;2023-12-20T12:03:14;11.93;;;6.57;;
47539;SDS011;33280;52.152;21.052;2023-12-20T12:06:02;9.93;;;6.60;;
47539;SDS011;33280;52.152;21.052;2023-12-20T12:08:52;12.13;;;6.33;;
47539;SDS011;33280;52.152;21.052;2023-12-20T12:11:39;14.70;;;7.07;;
47539;SDS011;33280;52.152;21.052;2023-12-20T12:14:27;13.57;;;6.20;;
47539;SDS011;33280;52.152;21.052;2023-12-20T12:17:15;9.27;;;6.20;;
47539;SDS011;33280;52.152;21.052;2023-12-20T12:20:04;9.00;;;5.47;;
47539;SDS011;33280;52.152;21.052;2023-12-20T12:23:03;7.40;;;5.33;;
47539;SDS011;33280;52.152;21.052;2023-12-20T12:25:51;9.57;;;5.03;;
47539;SDS011;33280;52.152;21.052;2023-12-20T12:28:42;8.30;;;5.37;;
47539;SDS011;33280;52.152;21.052;2023-12-20T12:31:30;9.60;;;5.77;;
47539;SDS011;33280;52.152;21.052;2023-12-20T12:34:17;8.80;;;5.60;;
47539;SDS011;33280;52.152;21.052;2023-12-20T12:37:05;9.27;;;5.53;;
47539;SDS011;33280;52.152;21.052;2023-12-20T12:39:53;9.40;;;4.90;;
47539;SDS011;33280;52.152;21.052;2023-12-20T12:42:43;9.57;;;5.63;;
47539;SDS011;33280;52.152;21.052;2023-12-20T12:45:31;11.20;;;5.77;;
47539;SDS011;33280;52.152;21.052;2023-12-20T12:48:19;8.77;;;5.90;;
47539;SDS011;33280;52.152;21.052;2023-12-20T12:51:07;9.13;;;5.77;;
47539;SDS011;33280;52.152;21.052;2023-12-20T12:53:59;14.53;;;6.03;;
47539;SDS011;33280;52.152;21.052;2023-12-20T12:56:47;12.07;;;6.97;;
47539;SDS011;33280;52.152;21.052;2023-12-20T12:59:34;9.67;;;6.37;;
47539;SDS011;33280;52.152;21.052;2023-12-20T13:02:26;12.63;;;6.70;;
47539;SDS011;33280;52.152;21.052;2023-12-20T13:05:14;14.60;;;7.50;;
47539;SDS011;33280;52.152;21.052;2023-12-20T13:08:01;12.13;;;7.57;;
47539;SDS011;33280;52.152;21.052;2023-12-20T13:10:49;11.97;;;6.83;;
47539;SDS011;33280;52.152;21.052;2023-12-20T13:13:36;10.57;;;6.30;;
47539;SDS011;33280;52.152;21.052;2023-12-20T13:16:24;12.23;;;7.20;;
47539;SDS011;33280;52.152;21.052;2023-12-20T13:19:12;11.40;;;7.00;;
47539;SDS011;33280;52.152;21.052;2023-12-20T13:22:00;11.47;;;6.87;;
47539;SDS011;33280;52.152;21.052;2023-12-20T13:24:47;13.57;;;7.17;;
47539;SDS011;33280;52.152;21.052;2023-12-20T13:27:35;10.83;;;6.60;;
47539;SDS011;33280;52.152;21.052;2023-12-20T13:30:23;10.93;;;6.90;;
47539;SDS011;33280;52.152;21.052;2023-12-20T13:33:10;14.70;;;7.53;;
47539;SDS011;33280;52.152;21.052;2023-12-20T13:35:58;11.83;;;7.20;;
47539;SDS011;33280;52.152;21.052;2023-12-20T13:38:48;10.27;;;6.77;;
47539;SDS011;33280;52.152;21.052;2023-12-20T13:41:35;11.00;;;6.90;;
47539;SDS011;33280;52.152;21.052;2023-12-20T13:44:23;12.90;;;7.30;;
47539;SDS011;33280;52.152;21.052;2023-12-20T13:47:10;13.57;;;7.23;;
47539;SDS011;33280;52.152;21.052;2023-12-20T13:49:57;11.40;;;6.70;;
47539;SDS011;33280;52.152;21.052;2023-12-20T13:52:46;12.33;;;6.83;;
47539;SDS011;33280;52.152;21.052;2023-12-20T13:55:34;12.90;;;7.00;;
47539;SDS011;33280;52.152;21.052;2023-12-20T13:58:21;12.77;;;7.37;;
47539;SDS011;33280;52.152;21.052;2023-12-20T14:01:09;11.53;;;6.67;;
47539;SDS011;33280;52.152;21.052;2023-12-20T14:03:57;11.03;;;6.83;;
47539;SDS011;33280;52.152;21.052;2023-12-20T14:06:46;10.50;;;6.77;;
47539;SDS011;33280;52.152;21.052;2023-12-20T14:09:34;13.97;;;7.53;;
47539;SDS011;33280;52.152;21.052;2023-12-20T14:12:22;11.57;;;7.10;;
47539;SDS011;33280;52.152;21.052;2023-12-20T14:15:09;11.40;;;7.13;;
47539;SDS011;33280;52.152;21.052;2023-12-20T14:17:59;10.20;;;6.87;;
47539;SDS011;33280;52.152;21.052;2023-12-20T14:20:47;12.10;;;6.53;;
47539;SDS011;33280;52.152;21.052;2023-12-20T14:23:35;9.47;;;6.63;;
47539;SDS011;33280;52.152;21.052;2023-12-20T14:26:22;13.17;;;6.93;;
47539;SDS011;33280;52.152;21.052;2023-12-20T14:29:10;11.73;;;7.00;;
47539;SDS011;33280;52.152;21.052;2023-12-20T14:31:57;9.87;;;6.33;;
47539;SDS011;33280;52.152;21.052;2023-12-20T14:34:44;11.00;;;6.63;;
47539;SDS011;33280;52.152;21.052;2023-12-20T14:37:32;12.43;;;6.43;;
47539;SDS011;33280;52.152;21.052;2023-12-20T14:40:19;8.73;;;5.70;;
47539;SDS011;33280;52.152;21.052;2023-12-20T14:43:07;9.93;;;5.20;;
47539;SDS011;33280;52.152;21.052;2023-12-20T14:45:54;12.13;;;6.07;;
47539;SDS011;33280;52.152;21.052;2023-12-20T14:48:41;8.27;;;5.30;;
47539;SDS011;33280;52.152;21.052;2023-12-20T14:51:29;8.17;;;5.13;;
47539;SDS011;33280;52.152;21.052;2023-12-20T14:54:16;9.67;;;5.63;;
47539;SDS011;33280;52.152;21.052;2023-12-20T14:57:03;9.80;;;5.07;;
47539;SDS011;33280;52.152;21.052;2023-12-20T14:59:52;8.13;;;5.00;;
47539;SDS011;33280;52.152;21.052;2023-12-20T15:02:39;12.83;;;5.00;;
47539;SDS011;33280;52.152;21.052;2023-12-20T15:05:26;8.83;;;5.20;;
47539;SDS011;33280;52.152;21.052;2023-12-20T15:08:14;9.97;;;5.37;;
47539;SDS011;33280;52.152;21.052;2023-12-20T15:11:02;9.67;;;4.80;;
47539;SDS011;33280;52.152;21.052;2023-12-20T15:13:50;8.83;;;4.93;;
47539;SDS011;33280;52.152;21.052;2023-12-20T15:16:42;7.20;;;4.90;;
47539;SDS011;33280;52.152;21.052;2023-12-20T15:19:30;10.83;;;5.33;;
47539;SDS011;33280;52.152;21.052;2023-12-20T15:22:18;8.93;;;4.90;;
47539;SDS011;33280;52.152;21.052;2023-12-20T15:25:05;8.10;;;4.70;;
47539;SDS011;33280;52.152;21.052;2023-12-20T15:27:55;8.87;;;4.50;;
47539;SDS011;33280;52.152;21.052;2023-12-20T15:30:42;9.70;;;4.67;;
47539;SDS011;33280;52.152;21.052;2023-12-20T15:33:30;8.70;;;4.70;;
47539;SDS011;33280;52.152;21.052;2023-12-20T15:36:18;9.17;;;4.67;;
47539;SDS011;33280;52.152;21.052;2023-12-20T15:39:06;9.20;;;4.90;;
47539;SDS011;33280;52.152;21.052;2023-12-20T15:41:56;11.93;;;5.23;;
47539;SDS011;33280;52.152;21.052;2023-12-20T15:44:43;9.47;;;4.80;;
47539;SDS011;33280;52.152;21.052;2023-12-20T15:47:31;11.07;;;4.67;;
47539;SDS011;33280;52.152;21.052;2023-12-20T15:50:18;8.90;;;4.50;;
47539;SDS011;33280;52.152;21.052;2023-12-20T15:53:06;13.23;;;4.87;;
47539;SDS011;33280;52.152;21.052;2023-12-20T15:55:54;10.63;;;5.03;;
47539;SDS011;33280;52.152;21.052;2023-12-20T15:58:41;9.20;;;4.77;;
47539;SDS011;33280;52.152;21.052;2023-12-20T16:01:29;10.77;;;5.00;;
47539;SDS011;33280;52.152;21.052;2023-12-20T16:04:17;8.70;;;4.30;;
47539;SDS011;33280;52.152;21.052;2023-12-20T16:07:05;10.43;;;4.60;;
47539;SDS011;33280;52.152;21.052;2023-12-20T16:09:52;6.27;;;4.20;;
47539;SDS011;33280;52.152;21.052;2023-12-20T16:12:39;7.87;;;4.40;;
47539;SDS011;33280;52.152;21.052;2023-12-20T16:15:27;8.50;;;4.10;;
47539;SDS011;33280;52.152;21.052;2023-12-20T16:18:14;7.37;;;4.30;;
47539;SDS011;33280;52.152;21.052;2023-12-20T16:21:01;8.17;;;3.77;;
47539;SDS011;33280;52.152;21.052;2023-12-20T16:23:50;10.40;;;4.30;;
47539;SDS011;33280;52.152;21.052;2023-12-20T16:26:37;7.13;;;4.20;;
47539;SDS011;33280;52.152;21.052;2023-12-20T16:29:24;8.93;;;4.47;;
47539;SDS011;33280;52.152;21.052;2023-12-20T16:32:12;9.27;;;4.30;;
47539;SDS011;33280;52.152;21.052;2023-12-20T16:35:00;7.97;;;4.13;;
47539;SDS011;33280;52.152;21.052;2023-12-20T16:37:48;8.87;;;5.07;;